FSIA/SEZ METAR and TAF weather

Enter ICAO airport designator
Station Type Date Time Source
FSIA METAR 2019/05/26 02:00 UTC NOAA

FSIA 260200Z 18003KT 9999 FEW018CB SCT023 27/25 Q1009 NOSIG


Station Type Date Time Source
FSIA Decoded METAR 2019/05/26 02:00 UTC NOAA

Seychelles Inter-National Airport, Seychelles (FSIA) 04-40S 055-31E 3M
May 25, 2019 - 10:00 PM EDT / 2019.05.26 0200 UTC
Wind: from the S (180 degrees) at 3 MPH (3 KT):0
Visibility: greater than 7 mile(s):0
Sky conditions: partly cloudy
Weather: Cumulonimbus clouds observed
Temperature: 80 F (27 C)
Dew Point: 77 F (25 C)
Relative Humidity: 88%
Pressure (altimeter): 29.80 in. Hg (1009 hPa)
ob: FSIA 260200Z 18003KT 9999 FEW018CB SCT023 27/25 Q1009 NOSIG
cycle: 2

Station Type Date Time Source
FSIA TAF 2019/05/25 18:10 UTC NOAA

TAF FSIA 251702Z 2518/2618 11005KT 9999 FEW020CB SCT024 PROB40
TEMPO 2518/2602 8000 -SHRA FEW018CB BKN020
TEMPO 2606/2615 8000 SHRA FEW016CB BKN018

Example: see airport list